sensor_id;sensor_type;location;lat;lon;timestamp;pressure;altitude;pressure_sealevel;temperature;humidity
68654;BME280;55636;51.108;13.622;2023-05-10T00:00:22;99848.59;;;13.07;38.97
68654;BME280;55636;51.108;13.622;2023-05-10T00:01:28;99854.13;;;13.07;39.18
68654;BME280;55636;51.108;13.622;2023-05-10T00:02:30;99844.16;;;13.06;39.13
68654;BME280;55636;51.108;13.622;2023-05-10T00:03:32;99847.22;;;13.05;39.06
68654;BME280;55636;51.108;13.622;2023-05-10T00:04:35;99845.56;;;13.04;39.13
68654;BME280;55636;51.108;13.622;2023-05-10T00:05:37;99841.97;;;13.03;39.16
68654;BME280;55636;51.108;13.622;2023-05-10T00:06:40;99840.31;;;13.02;39.22
68654;BME280;55636;51.108;13.622;2023-05-10T00:07:42;99842.53;;;13.00;39.30
68654;BME280;55636;51.108;13.622;2023-05-10T00:08:46;99846.16;;;13.00;39.16
68654;BME280;55636;51.108;13.622;2023-05-10T00:09:49;99842.00;;;12.98;39.38
68654;BME280;55636;51.108;13.622;2023-05-10T00:10:51;99833.69;;;12.98;39.16
68654;BME280;55636;51.108;13.622;2023-05-10T00:11:54;99845.06;;;12.96;39.31
68654;BME280;55636;51.108;13.622;2023-05-10T00:12:56;99841.47;;;12.96;39.37
68654;BME280;55636;51.108;13.622;2023-05-10T00:13:58;99839.00;;;12.94;39.14
68654;BME280;55636;51.108;13.622;2023-05-10T00:15:01;99844.81;;;12.93;39.37
68654;BME280;55636;51.108;13.622;2023-05-10T00:16:04;99830.72;;;12.89;39.32
68654;BME280;55636;51.108;13.622;2023-05-10T00:17:07;99834.28;;;12.90;39.34
68654;BME280;55636;51.108;13.622;2023-05-10T00:18:09;99829.34;;;12.87;39.49
68654;BME280;55636;51.108;13.622;2023-05-10T00:19:12;99833.22;;;12.86;39.41
68654;BME280;55636;51.108;13.622;2023-05-10T00:20:14;99828.78;;;12.84;39.44
68654;BME280;55636;51.108;13.622;2023-05-10T00:21:17;99832.41;;;12.85;39.39
68654;BME280;55636;51.108;13.622;2023-05-10T00:22:20;99828.78;;;12.84;39.44
68654;BME280;55636;51.108;13.622;2023-05-10T00:23:23;99826.03;;;12.84;39.30
68654;BME280;55636;51.108;13.622;2023-05-10T00:24:26;99821.63;;;12.83;39.49
68654;BME280;55636;51.108;13.622;2023-05-10T00:25:28;99826.59;;;12.81;39.41
68654;BME280;55636;51.108;13.622;2023-05-10T00:26:31;99820.25;;;12.81;39.37
68654;BME280;55636;51.108;13.622;2023-05-10T00:27:33;99828.81;;;12.79;39.51
68654;BME280;55636;51.108;13.622;2023-05-10T00:28:36;99829.66;;;12.80;39.48
68654;BME280;55636;51.108;13.622;2023-05-10T00:29:38;99827.19;;;12.78;39.62
68654;BME280;55636;51.108;13.622;2023-05-10T00:30:40;99833.00;;;12.77;39.73
68654;BME280;55636;51.108;13.622;2023-05-10T00:31:43;99833.84;;;12.77;39.55
68654;BME280;55636;51.108;13.622;2023-05-10T00:32:45;99819.16;;;12.77;39.55
68654;BME280;55636;51.108;13.622;2023-05-10T00:33:50;99828.59;;;12.76;39.68
68654;BME280;55636;51.108;13.622;2023-05-10T00:34:52;99832.47;;;12.75;39.60
68654;BME280;55636;51.108;13.622;2023-05-10T00:35:54;99825.28;;;12.74;39.68
68654;BME280;55636;51.108;13.622;2023-05-10T00:36:57;99820.56;;;12.74;39.72
68654;BME280;55636;51.108;13.622;2023-05-10T00:37:59;99822.81;;;12.72;39.80
68654;BME280;55636;51.108;13.622;2023-05-10T00:39:02;99823.09;;;12.71;39.84
68654;BME280;55636;51.108;13.622;2023-05-10T00:40:06;99817.00;;;12.68;39.82
68654;BME280;55636;51.108;13.622;2023-05-10T00:41:09;99823.34;;;12.69;39.79
68654;BME280;55636;51.108;13.622;2023-05-10T00:42:13;99816.19;;;12.68;39.89
68654;BME280;55636;51.108;13.622;2023-05-10T00:43:16;99815.63;;;12.66;40.12
68654;BME280;55636;51.108;13.622;2023-05-10T00:44:18;99804.84;;;12.64;39.91
68654;BME280;55636;51.108;13.622;2023-05-10T00:45:21;99815.63;;;12.66;39.98
68654;BME280;55636;51.108;13.622;2023-05-10T00:46:23;99810.69;;;12.63;39.84
68654;BME280;55636;51.108;13.622;2023-05-10T00:47:28;99813.75;;;12.61;40.00
68654;BME280;55636;51.108;13.622;2023-05-10T00:48:31;99808.19;;;12.61;40.12
68654;BME280;55636;51.108;13.622;2023-05-10T00:49:34;99809.28;;;12.60;40.10
68654;BME280;55636;51.108;13.622;2023-05-10T00:50:38;99809.56;;;12.59;39.97
68654;BME280;55636;51.108;13.622;2023-05-10T00:51:40;99809.00;;;12.57;40.16
68654;BME280;55636;51.108;13.622;2023-05-10T00:52:45;99818.72;;;12.54;40.19
68654;BME280;55636;51.108;13.622;2023-05-10T00:53:49;99813.47;;;12.53;40.30
68654;BME280;55636;51.108;13.622;2023-05-10T00:54:52;99817.06;;;12.53;40.26
68654;BME280;55636;51.108;13.622;2023-05-10T00:55:55;99817.06;;;12.53;40.26
68654;BME280;55636;51.108;13.622;2023-05-10T00:56:57;99810.16;;;12.50;40.27
68654;BME280;55636;51.108;13.622;2023-05-10T00:58:00;99814.31;;;12.48;40.44
68654;BME280;55636;51.108;13.622;2023-05-10T00:59:03;99811.56;;;12.48;40.20
68654;BME280;55636;51.108;13.622;2023-05-10T01:00:06;99822.94;;;12.46;40.43
68654;BME280;55636;51.108;13.622;2023-05-10T01:01:09;99808.53;;;12.44;40.41
68654;BME280;55636;51.108;13.622;2023-05-10T01:02:12;99813.25;;;12.44;40.51
68654;BME280;55636;51.108;13.622;2023-05-10T01:03:16;99813.00;;;12.40;40.56
68654;BME280;55636;51.108;13.622;2023-05-10T01:04:19;99810.22;;;12.40;40.61
68654;BME280;55636;51.108;13.622;2023-05-10T01:05:27;99819.66;;;12.39;40.44
68654;BME280;55636;51.108;13.622;2023-05-10T01:06:32;99810.81;;;12.37;40.59
68654;BME280;55636;51.108;13.622;2023-05-10T01:07:34;99808.31;;;12.35;40.45
68654;BME280;55636;51.108;13.622;2023-05-10T01:08:38;99810.25;;;12.35;40.45
68654;BME280;55636;51.108;13.622;2023-05-10T01:09:40;99806.94;;;12.33;40.56
68654;BME280;55636;51.108;13.622;2023-05-10T01:10:43;99808.88;;;12.32;40.58
68654;BME280;55636;51.108;13.622;2023-05-10T01:11:46;99809.16;;;12.31;40.82
68654;BME280;55636;51.108;13.622;2023-05-10T01:12:49;99799.19;;;12.30;40.75
68654;BME280;55636;51.108;13.622;2023-05-10T01:13:56;99804.22;;;12.28;40.62
68654;BME280;55636;51.108;13.622;2023-05-10T01:15:00;99801.72;;;12.26;40.70
68654;BME280;55636;51.108;13.622;2023-05-10T01:16:04;99801.19;;;12.24;40.80
68654;BME280;55636;51.108;13.622;2023-05-10T01:17:07;99801.19;;;12.24;40.65
68654;BME280;55636;51.108;13.622;2023-05-10T01:18:09;99802.56;;;12.22;40.64
68654;BME280;55636;51.108;13.622;2023-05-10T01:19:18;99804.53;;;12.21;40.71
68654;BME280;55636;51.108;13.622;2023-05-10T01:20:21;99801.75;;;12.21;40.54
68654;BME280;55636;51.108;13.622;2023-05-10T01:23:00;99797.06;;;12.16;40.43
68654;BME280;55636;51.108;13.622;2023-05-10T01:25:55;99804.00;;;12.14;40.64
68654;BME280;55636;51.108;13.622;2023-05-10T01:28:50;99800.69;;;12.12;40.71
68654;BME280;55636;51.108;13.622;2023-05-10T01:30:08;99800.97;;;12.10;40.69
68654;BME280;55636;51.108;13.622;2023-05-10T01:34:09;99801.56;;;12.02;40.75
68654;BME280;55636;51.108;13.622;2023-05-10T01:36:49;99791.06;;;11.99;40.97
68654;BME280;55636;51.108;13.622;2023-05-10T01:38:02;99789.41;;;11.98;40.93
68654;BME280;55636;51.108;13.622;2023-05-10T01:39:12;99787.22;;;11.95;41.04
68654;BME280;55636;51.108;13.622;2023-05-10T01:40:30;99793.00;;;11.93;40.82
68654;BME280;55636;51.108;13.622;2023-05-10T01:42:55;99793.59;;;11.90;40.84
68654;BME280;55636;51.108;13.622;2023-05-10T01:46:38;99788.63;;;11.87;40.92
68654;BME280;55636;51.108;13.622;2023-05-10T01:47:43;99785.03;;;11.87;40.82
68654;BME280;55636;51.108;13.622;2023-05-10T01:48:48;99787.25;;;11.84;40.96
68654;BME280;55636;51.108;13.622;2023-05-10T01:49:56;99781.72;;;11.84;41.04
68654;BME280;55636;51.108;13.622;2023-05-10T01:51:00;99792.25;;;11.82;41.12
68654;BME280;55636;51.108;13.622;2023-05-10T01:52:14;99787.00;;;11.81;41.14
68654;BME280;55636;51.108;13.622;2023-05-10T01:53:18;99776.75;;;11.81;41.04
68654;BME280;55636;51.108;13.622;2023-05-10T01:54:23;99789.19;;;11.79;41.16
68654;BME280;55636;51.108;13.622;2023-05-10T01:55:29;99790.59;;;11.76;41.20
68654;BME280;55636;51.108;13.622;2023-05-10T01:56:34;99789.78;;;11.76;41.17
68654;BME280;55636;51.108;13.622;2023-05-10T01:57:39;99786.16;;;11.75;41.28
68654;BME280;55636;51.108;13.622;2023-05-10T01:58:44;99794.47;;;11.75;41.24
68654;BME280;55636;51.108;13.622;2023-05-10T01:59:50;99789.22;;;11.74;41.32
68654;BME280;55636;51.108;13.622;2023-05-10T02:00:53;99785.06;;;11.71;41.13
68654;BME280;55636;51.108;13.622;2023-05-10T02:01:58;99789.50;;;11.72;41.34
68654;BME280;55636;51.108;13.622;2023-05-10T02:03:05;99791.47;;;11.72;41.37
68654;BME280;55636;51.108;13.622;2023-05-10T02:04:11;99790.63;;;11.71;41.31
68654;BME280;55636;51.108;13.622;2023-05-10T02:05:16;99789.25;;;11.68;41.40
68654;BME280;55636;51.108;13.622;2023-05-10T02:06:20;99793.66;;;11.69;41.36
68654;BME280;55636;51.108;13.622;2023-05-10T02:07:24;99790.09;;;11.69;41.40
68654;BME280;55636;51.108;13.622;2023-05-10T02:08:29;99793.94;;;11.68;41.35
68654;BME280;55636;51.108;13.622;2023-05-10T02:09:34;99785.66;;;11.68;41.45
68654;BME280;55636;51.108;13.622;2023-05-10T02:10:37;99787.59;;;11.67;41.44
68654;BME280;55636;51.108;13.622;2023-05-10T02:11:43;99784.28;;;11.65;41.52
68654;BME280;55636;51.108;13.622;2023-05-10T02:12:48;99787.88;;;11.66;41.35
68654;BME280;55636;51.108;13.622;2023-05-10T02:13:53;99789.00;;;11.65;41.46
68654;BME280;55636;51.108;13.622;2023-05-10T02:15:04;99790.09;;;11.64;41.34
68654;BME280;55636;51.108;13.622;2023-05-10T02:16:08;99784.84;;;11.62;41.30
68654;BME280;55636;51.108;13.622;2023-05-10T02:17:11;99783.47;;;11.60;41.46
68654;BME280;55636;51.108;13.622;2023-05-10T02:18:14;99782.91;;;11.58;41.43
68654;BME280;55636;51.108;13.622;2023-05-10T02:19:19;99779.06;;;11.59;41.55
68654;BME280;55636;51.108;13.622;2023-05-10T02:20:23;99780.97;;;11.58;41.45
68654;BME280;55636;51.108;13.622;2023-05-10T02:21:28;99785.13;;;11.56;41.44
68654;BME280;55636;51.108;13.622;2023-05-10T02:22:32;99780.16;;;11.52;41.47
68654;BME280;55636;51.108;13.622;2023-05-10T02:23:35;99780.16;;;11.52;41.63
68654;BME280;55636;51.108;13.622;2023-05-10T02:24:39;99778.50;;;11.51;41.63
68654;BME280;55636;51.108;13.622;2023-05-10T02:25:43;99783.22;;;11.51;41.84
68654;BME280;55636;51.108;13.622;2023-05-10T02:26:47;99780.44;;;11.51;41.72
68654;BME280;55636;51.108;13.622;2023-05-10T02:27:53;99784.59;;;11.48;41.83
68654;BME280;55636;51.108;13.622;2023-05-10T02:28:58;99778.25;;;11.48;41.66
68654;BME280;55636;51.108;13.622;2023-05-10T02:30:02;99786.56;;;11.48;41.66
68654;BME280;55636;51.108;13.622;2023-05-10T02:31:05;99779.66;;;11.45;41.76
68654;BME280;55636;51.108;13.622;2023-05-10T02:32:10;99782.66;;;11.44;41.63
68654;BME280;55636;51.108;13.622;2023-05-10T02:33:14;99773.81;;;11.42;41.75
68654;BME280;55636;51.108;13.622;2023-05-10T02:34:19;99772.97;;;11.41;41.89
68654;BME280;55636;51.108;13.622;2023-05-10T02:35:22;99776.88;;;11.40;41.79
68654;BME280;55636;51.108;13.622;2023-05-10T02:36:27;99773.53;;;11.38;41.89
68654;BME280;55636;51.108;13.622;2023-05-10T02:37:31;99769.97;;;11.38;41.80
68654;BME280;55636;51.108;13.622;2023-05-10T02:38:34;99771.34;;;11.35;41.88
68654;BME280;55636;51.108;13.622;2023-05-10T02:39:38;99772.97;;;11.36;41.84
68654;BME280;55636;51.108;13.622;2023-05-10T02:40:46;99772.44;;;11.34;41.94
68654;BME280;55636;51.108;13.622;2023-05-10T02:41:50;99778.50;;;11.31;41.94
68654;BME280;55636;51.108;13.622;2023-05-10T02:42:55;99772.47;;;11.29;42.03
68654;BME280;55636;51.108;13.622;2023-05-10T02:44:01;99769.69;;;11.29;42.14
68654;BME280;55636;51.108;13.622;2023-05-10T02:45:12;99771.06;;;11.26;42.12
68654;BME280;55636;51.108;13.622;2023-05-10T02:46:17;99763.88;;;11.25;42.06
68654;BME280;55636;51.108;13.622;2023-05-10T02:47:19;99767.75;;;11.24;42.25
68654;BME280;55636;51.108;13.622;2023-05-10T02:48:23;99766.13;;;11.23;42.31
68654;BME280;55636;51.108;13.622;2023-05-10T02:49:26;99766.38;;;11.22;42.40
68654;BME280;55636;51.108;13.622;2023-05-10T02:50:30;99772.75;;;11.22;42.30
68654;BME280;55636;51.108;13.622;2023-05-10T02:51:36;99763.38;;;11.18;42.41
68654;BME280;55636;51.108;13.622;2023-05-10T02:52:45;99775.81;;;11.15;42.60
68654;BME280;55636;51.108;13.622;2023-05-10T02:53:50;99769.44;;;11.15;42.26
68654;BME280;55636;51.108;13.622;2023-05-10T02:55:00;99763.91;;;11.15;42.52
68654;BME280;55636;51.108;13.622;2023-05-10T02:56:12;99771.66;;;11.13;42.36
68654;BME280;55636;51.108;13.622;2023-05-10T02:57:16;99765.28;;;11.12;42.37
68654;BME280;55636;51.108;13.622;2023-05-10T02:58:21;99762.00;;;11.10;42.42
68654;BME280;55636;51.108;13.622;2023-05-10T02:59:23;99765.84;;;11.09;42.54
68654;BME280;55636;51.108;13.622;2023-05-10T03:00:26;99765.00;;;11.09;42.67
68654;BME280;55636;51.108;13.622;2023-05-10T03:01:29;99764.19;;;11.08;42.67
68654;BME280;55636;51.108;13.622;2023-05-10T03:02:32;99762.53;;;11.07;42.76
68654;BME280;55636;51.108;13.622;2023-05-10T03:03:35;99768.06;;;11.07;42.76
68654;BME280;55636;51.108;13.622;2023-05-10T03:04:38;99768.34;;;11.06;42.78
68654;BME280;55636;51.108;13.622;2023-05-10T03:05:40;99769.44;;;11.05;42.66
68654;BME280;55636;51.108;13.622;2023-05-10T03:06:43;99761.44;;;11.03;42.84
68654;BME280;55636;51.108;13.622;2023-05-10T03:07:46;99772.50;;;11.03;42.79
68654;BME280;55636;51.108;13.622;2023-05-10T03:08:49;99771.94;;;11.01;42.82
68654;BME280;55636;51.108;13.622;2023-05-10T03:09:51;99767.53;;;11.00;42.96
68654;BME280;55636;51.108;13.622;2023-05-10T03:12:33;99766.44;;;10.96;42.76
68654;BME280;55636;51.108;13.622;2023-05-10T03:15:31;99779.13;;;10.97;43.07
68654;BME280;55636;51.108;13.622;2023-05-10T03:16:44;99775.81;;;10.95;43.00
68654;BME280;55636;51.108;13.622;2023-05-10T03:19:09;99777.19;;;10.92;43.21
68654;BME280;55636;51.108;13.622;2023-05-10T03:20:24;99771.69;;;10.92;43.18
68654;BME280;55636;51.108;13.622;2023-05-10T03:21:29;99770.00;;;10.91;43.16
68654;BME280;55636;51.108;13.622;2023-05-10T03:22:36;99767.53;;;10.90;43.42
68654;BME280;55636;51.108;13.622;2023-05-10T03:23:56;99759.53;;;10.88;43.20
68654;BME280;55636;51.108;13.622;2023-05-10T03:25:04;99765.31;;;10.86;43.34
68654;BME280;55636;51.108;13.622;2023-05-10T03:26:09;99760.63;;;10.87;43.29
68654;BME280;55636;51.108;13.622;2023-05-10T03:27:14;99766.44;;;10.85;43.38
68654;BME280;55636;51.108;13.622;2023-05-10T03:28:18;99763.91;;;10.84;43.49
68654;BME280;55636;51.108;13.622;2023-05-10T03:29:21;99759.78;;;10.81;43.53
68654;BME280;55636;51.108;13.622;2023-05-10T03:30:25;99765.88;;;10.78;43.68
68654;BME280;55636;51.108;13.622;2023-05-10T03:31:27;99759.53;;;10.78;43.48
68654;BME280;55636;51.108;13.622;2023-05-10T03:32:30;99765.59;;;10.80;43.60
68654;BME280;55636;51.108;13.622;2023-05-10T03:33:34;99759.53;;;10.78;43.57
68654;BME280;55636;51.108;13.622;2023-05-10T03:34:42;99766.72;;;10.79;43.59
68654;BME280;55636;51.108;13.622;2023-05-10T03:35:45;99764.22;;;10.77;43.79
68654;BME280;55636;51.108;13.622;2023-05-10T03:36:50;99764.50;;;10.76;43.74
68654;BME280;55636;51.108;13.622;2023-05-10T03:37:52;99767.81;;;10.78;43.60
68654;BME280;55636;51.108;13.622;2023-05-10T03:38:57;99758.97;;;10.76;43.81
68654;BME280;55636;51.108;13.622;2023-05-10T03:40:03;99767.53;;;10.74;43.85
68654;BME280;55636;51.108;13.622;2023-05-10T03:41:08;99765.88;;;10.73;43.77
68654;BME280;55636;51.108;13.622;2023-05-10T03:42:12;99768.63;;;10.73;44.02
68654;BME280;55636;51.108;13.622;2023-05-10T03:43:14;99765.88;;;10.73;43.90
68654;BME280;55636;51.108;13.622;2023-05-10T03:44:17;99778.28;;;10.70;44.13
68654;BME280;55636;51.108;13.622;2023-05-10T03:45:19;99770.84;;;10.71;44.07
68654;BME280;55636;51.108;13.622;2023-05-10T03:46:22;99777.19;;;10.72;43.90
68654;BME280;55636;51.108;13.622;2023-05-10T03:47:26;99780.25;;;10.70;43.86
68654;BME280;55636;51.108;13.622;2023-05-10T03:48:28;99784.66;;;10.71;43.96
68654;BME280;55636;51.108;13.622;2023-05-10T03:49:30;99774.72;;;10.70;44.03
68654;BME280;55636;51.108;13.622;2023-05-10T03:50:33;99782.72;;;10.72;44.01
68654;BME280;55636;51.108;13.622;2023-05-10T03:51:35;99778.03;;;10.72;44.27
68654;BME280;55636;51.108;13.622;2023-05-10T03:52:39;99776.09;;;10.73;44.27
68654;BME280;55636;51.108;13.622;2023-05-10T03:53:41;99782.72;;;10.72;44.01
68654;BME280;55636;51.108;13.622;2023-05-10T03:54:44;99783.53;;;10.72;44.12
68654;BME280;55636;51.108;13.622;2023-05-10T03:55:47;99782.44;;;10.73;44.14
68654;BME280;55636;51.108;13.622;2023-05-10T03:56:49;99776.38;;;10.71;44.26
68654;BME280;55636;51.108;13.622;2023-05-10T03:57:53;99787.16;;;10.73;44.36
68654;BME280;55636;51.108;13.622;2023-05-10T03:58:57;99786.31;;;10.72;44.38
68654;BME280;55636;51.108;13.622;2023-05-10T03:59:59;99782.16;;;10.69;44.55
68654;BME280;55636;51.108;13.622;2023-05-10T04:01:02;99775.53;;;10.70;44.42
68654;BME280;55636;51.108;13.622;2023-05-10T04:02:04;99784.91;;;10.69;44.47
68654;BME280;55636;51.108;13.622;2023-05-10T04:03:07;99783.00;;;10.70;44.63
68654;BME280;55636;51.108;13.622;2023-05-10T04:04:09;99784.91;;;10.69;44.58
68654;BME280;55636;51.108;13.622;2023-05-10T04:05:12;99782.16;;;10.69;44.55
68654;BME280;55636;51.108;13.622;2023-05-10T04:06:15;99783.81;;;10.70;44.63
68654;BME280;55636;51.108;13.622;2023-05-10T04:07:18;99781.34;;;10.69;44.67
68654;BME280;55636;51.108;13.622;2023-05-10T04:08:20;99777.47;;;10.70;44.75
68654;BME280;55636;51.108;13.622;2023-05-10T04:09:22;99781.06;;;10.70;44.60
68654;BME280;55636;51.108;13.622;2023-05-10T04:10:24;99778.88;;;10.73;44.77
68654;BME280;55636;51.108;13.622;2023-05-10T04:11:27;99787.44;;;10.71;44.81
68654;BME280;55636;51.108;13.622;2023-05-10T04:12:29;99782.44;;;10.68;44.73
68654;BME280;55636;51.108;13.622;2023-05-10T04:13:32;99783.00;;;10.70;44.64
68654;BME280;55636;51.108;13.622;2023-05-10T04:14:34;99778.28;;;10.70;44.68
68654;BME280;55636;51.108;13.622;2023-05-10T04:15:37;99780.78;;;10.72;44.78
68654;BME280;55636;51.108;13.622;2023-05-10T04:16:39;99778.03;;;10.72;44.84
68654;BME280;55636;51.108;13.622;2023-05-10T04:17:41;99780.53;;;10.74;44.58
68654;BME280;55636;51.108;13.622;2023-05-10T04:18:44;99784.91;;;10.75;44.63
68654;BME280;55636;51.108;13.622;2023-05-10T04:19:47;99778.31;;;10.76;44.85
68654;BME280;55636;51.108;13.622;2023-05-10T04:20:49;99782.72;;;10.77;44.69
68654;BME280;55636;51.108;13.622;2023-05-10T04:21:52;99783.53;;;10.77;44.86
68654;BME280;55636;51.108;13.622;2023-05-10T04:22:55;99776.34;;;10.81;44.63
68654;BME280;55636;51.108;13.622;2023-05-10T04:23:58;99776.09;;;10.83;44.83
68654;BME280;55636;51.108;13.622;2023-05-10T04:25:00;99779.41;;;10.85;44.90
68654;BME280;55636;51.108;13.622;2023-05-10T04:26:02;99769.72;;;10.88;44.68
68654;BME280;55636;51.108;13.622;2023-05-10T04:27:05;99779.41;;;10.90;44.83
68654;BME280;55636;51.108;13.622;2023-05-10T04:28:07;99768.06;;;10.92;44.70
68654;BME280;55636;51.108;13.622;2023-05-10T04:29:09;99774.97;;;10.94;44.77
68654;BME280;55636;51.108;13.622;2023-05-10T04:30:12;99770.56;;;10.98;44.62
68654;BME280;55636;51.108;13.622;2023-05-10T04:31:16;99774.97;;;11.05;44.65
68654;BME280;55636;51.108;13.622;2023-05-10T04:32:19;99775.25;;;11.08;44.67
68654;BME280;55636;51.108;13.622;2023-05-10T04:33:22;99771.38;;;11.14;44.80
68654;BME280;55636;51.108;13.622;2023-05-10T04:34:25;99773.28;;;11.19;44.85
68654;BME280;55636;51.108;13.622;2023-05-10T04:35:27;99776.91;;;11.25;44.72
68654;BME280;55636;51.108;13.622;2023-05-10T04:36:32;99777.13;;;11.28;44.60
68654;BME280;55636;51.108;13.622;2023-05-10T04:37:37;99774.66;;;11.32;44.57
68654;BME280;55636;51.108;13.622;2023-05-10T04:38:39;99769.66;;;11.39;44.43
68654;BME280;55636;51.108;13.622;2023-05-10T04:39:42;99765.81;;;11.45;44.35
68654;BME280;55636;51.108;13.622;2023-05-10T04:40:44;99773.81;;;11.52;44.31
68654;BME280;55636;51.108;13.622;2023-05-10T04:41:46;99769.91;;;11.58;44.08
68654;BME280;55636;51.108;13.622;2023-05-10T04:42:49;99776.28;;;11.64;44.04
68654;BME280;55636;51.108;13.622;2023-05-10T04:43:51;99761.31;;;11.70;43.86
68654;BME280;55636;51.108;13.622;2023-05-10T04:44:53;99759.06;;;11.77;43.83
68654;BME280;55636;51.108;13.622;2023-05-10T04:45:57;99768.16;;;11.83;43.79
68654;BME280;55636;51.108;13.622;2023-05-10T04:47:01;99762.34;;;11.90;43.67
68654;BME280;55636;51.108;13.622;2023-05-10T04:48:05;99754.00;;;11.95;43.59
68654;BME280;55636;51.108;13.622;2023-05-10T04:49:07;99754.50;;;12.02;43.36
68654;BME280;55636;51.108;13.622;2023-05-10T04:50:10;99748.66;;;12.09;43.51
68654;BME280;55636;51.108;13.622;2023-05-10T04:51:13;99753.34;;;12.13;43.36
68654;BME280;55636;51.108;13.622;2023-05-10T04:52:16;99752.72;;;12.22;43.28
68654;BME280;55636;51.108;13.622;2023-05-10T04:53:19;99747.97;;;12.27;43.04
68654;BME280;55636;51.108;13.622;2023-05-10T04:54:23;99750.16;;;12.35;42.93
68654;BME280;55636;51.108;13.622;2023-05-10T04:55:25;99750.94;;;12.41;42.92
68654;BME280;55636;51.108;13.622;2023-05-10T04:56:28;99750.91;;;12.46;42.69
68654;BME280;55636;51.108;13.622;2023-05-10T04:57:32;99759.72;;;12.54;42.67
68654;BME280;55636;51.108;13.622;2023-05-10T04:58:34;99763.88;;;12.61;42.47
68654;BME280;55636;51.108;13.622;2023-05-10T04:59:37;99755.22;;;12.68;42.52
68654;BME280;55636;51.108;13.622;2023-05-10T05:00:40;99757.34;;;12.76;42.30
68654;BME280;55636;51.108;13.622;2023-05-10T05:01:42;99752.06;;;12.80;42.31
68654;BME280;55636;51.108;13.622;2023-05-10T05:02:45;99768.06;;;12.88;42.04
68654;BME280;55636;51.108;13.622;2023-05-10T05:03:47;99751.41;;;12.93;42.03
68654;BME280;55636;51.108;13.622;2023-05-10T05:04:50;99746.88;;;13.03;41.70
68654;BME280;55636;51.108;13.622;2023-05-10T05:05:53;99754.84;;;13.09;41.56
68654;BME280;55636;51.108;13.622;2023-05-10T05:06:55;99760.88;;;13.16;41.65
68654;BME280;55636;51.108;13.622;2023-05-10T05:07:59;99763.84;;;13.25;41.71
68654;BME280;55636;51.108;13.622;2023-05-10T05:09:01;99766.78;;;13.34;41.70
68654;BME280;55636;51.108;13.622;2023-05-10T05:10:07;99767.28;;;13.41;41.34
68654;BME280;55636;51.108;13.622;2023-05-10T05:11:10;99777.22;;;13.47;41.19
68654;BME280;55636;51.108;13.622;2023-05-10T05:12:12;99768.22;;;13.56;41.09
68654;BME280;55636;51.108;13.622;2023-05-10T05:13:16;99772.00;;;13.65;41.06
68654;BME280;55636;51.108;13.622;2023-05-10T05:14:18;99777.22;;;13.72;41.12
68654;BME280;55636;51.108;13.622;2023-05-10T05:15:22;99773.78;;;13.80;40.91
68654;BME280;55636;51.108;13.622;2023-05-10T05:16:25;99784.25;;;13.88;40.92
68654;BME280;55636;51.108;13.622;2023-05-10T05:17:30;99781.66;;;13.97;40.53
68654;BME280;55636;51.108;13.622;2023-05-10T05:18:32;99774.88;;;14.03;40.78
68654;BME280;55636;51.108;13.622;2023-05-10T05:19:34;99774.25;;;14.11;40.32
68654;BME280;55636;51.108;13.622;2023-05-10T05:20:37;99768.81;;;14.20;40.18
68654;BME280;55636;51.108;13.622;2023-05-10T05:21:40;99772.69;;;14.24;40.09
68654;BME280;55636;51.108;13.622;2023-05-10T05:22:42;99764.78;;;14.31;40.08
68654;BME280;55636;51.108;13.622;2023-05-10T05:23:45;99767.72;;;14.40;40.25
68654;BME280;55636;51.108;13.622;2023-05-10T05:24:47;99763.75;;;14.46;40.06
68654;BME280;55636;51.108;13.622;2023-05-10T05:25:53;99764.16;;;14.54;39.99
68654;BME280;55636;51.108;13.622;2023-05-10T05:26:55;99756.81;;;14.63;39.79
68654;BME280;55636;51.108;13.622;2023-05-10T05:27:58;99766.41;;;14.71;39.53
68654;BME280;55636;51.108;13.622;2023-05-10T05:29:00;99764.38;;;14.76;39.36
68654;BME280;55636;51.108;13.622;2023-05-10T05:30:02;99759.81;;;14.86;39.32
68654;BME280;55636;51.108;13.622;2023-05-10T05:31:05;99759.41;;;14.92;39.31
68654;BME280;55636;51.108;13.622;2023-05-10T05:32:09;99762.63;;;14.99;39.15
68654;BME280;55636;51.108;13.622;2023-05-10T05:33:15;99766.66;;;15.07;39.13
68654;BME280;55636;51.108;13.622;2023-05-10T05:34:18;99755.97;;;15.14;38.81
68654;BME280;55636;51.108;13.622;2023-05-10T05:35:22;99755.03;;;15.19;38.92
68654;BME280;55636;51.108;13.622;2023-05-10T05:36:24;99758.56;;;15.25;38.51
68654;BME280;55636;51.108;13.622;2023-05-10T05:37:27;99753.41;;;15.32;38.34
68654;BME280;55636;51.108;13.622;2023-05-10T05:38:29;99759.72;;;15.38;38.43
68654;BME280;55636;51.108;13.622;2023-05-10T05:39:32;99749.81;;;15.45;38.62
68654;BME280;55636;51.108;13.622;2023-05-10T05:40:34;99759.72;;;15.52;38.69
68654;BME280;55636;51.108;13.622;2023-05-10T05:41:38;99760.13;;;15.59;38.22
68654;BME280;55636;51.108;13.622;2023-05-10T05:42:41;99763.84;;;15.68;38.20
68654;BME280;55636;51.108;13.622;2023-05-10T05:43:44;99756.75;;;15.76;38.22
68654;BME280;55636;51.108;13.622;2023-05-10T05:44:46;99761.59;;;15.84;38.46
68654;BME280;55636;51.108;13.622;2023-05-10T05:45:49;99772.53;;;15.94;38.27
68654;BME280;55636;51.108;13.622;2023-05-10T05:46:51;99768.19;;;16.02;38.17
68654;BME280;55636;51.108;13.622;2023-05-10T05:47:54;99759.91;;;16.11;38.07
68654;BME280;55636;51.108;13.622;2023-05-10T05:48:56;99761.97;;;16.19;37.88
68654;BME280;55636;51.108;13.622;2023-05-10T05:49:58;99762.84;;;16.28;37.47
68654;BME280;55636;51.108;13.622;2023-05-10T05:51:01;99765.72;;;16.37;37.19
68654;BME280;55636;51.108;13.622;2023-05-10T05:52:05;99768.59;;;16.46;37.30